createdAt,value
2018-05-16T00:00:26.476Z,81.18
2018-05-16T00:01:33.016Z,81.13
2018-05-16T00:02:39.555Z,81.11
2018-05-16T00:03:45.370Z,81.06
2018-05-16T00:04:51.147Z,81.02
2018-05-16T00:05:56.915Z,80.93
2018-05-16T00:07:03.460Z,80.84
2018-05-16T00:08:09.232Z,80.78
2018-05-16T00:09:15.027Z,80.73
2018-05-16T00:10:20.801Z,80.71
2018-05-16T00:11:27.342Z,80.67
2018-05-16T00:12:33.887Z,80.61
2018-05-16T00:13:39.655Z,80.51
2018-05-16T00:14:46.222Z,80.58
2018-05-16T00:15:52.764Z,80.68
2018-05-16T00:16:58.527Z,80.71
2018-05-16T00:18:05.071Z,80.73
2018-05-16T00:19:11.641Z,80.66
2018-05-16T00:20:18.225Z,80.63
2018-05-16T00:21:23.995Z,80.61
2018-05-16T00:22:29.771Z,80.51
2018-05-16T00:23:35.635Z,80.55
2018-05-16T00:24:41.422Z,80.57
2018-05-16T00:25:47.230Z,80.67
2018-05-16T00:26:53.767Z,80.65
2018-05-16T00:27:59.546Z,80.69
2018-05-16T00:29:05.307Z,80.73
2018-05-16T00:30:11.078Z,80.81
2018-05-16T00:31:16.899Z,80.85
2018-05-16T00:32:22.438Z,80.93
2018-05-16T00:33:28.202Z,80.91
2018-05-16T00:34:33.965Z,80.89
2018-05-16T00:35:40.505Z,80.97
2018-05-16T00:36:47.071Z,81.00
2018-05-16T00:37:52.836Z,81.01
2018-05-16T00:38:59.381Z,80.90
2018-05-16T00:40:05.908Z,80.85
2018-05-16T00:41:11.696Z,80.76
2018-05-16T00:42:18.248Z,80.75
2018-05-16T00:43:24.792Z,80.83
2018-05-16T00:44:30.341Z,80.89
2018-05-16T00:45:36.103Z,80.87
2018-05-16T00:46:41.869Z,80.84
2018-05-16T00:47:47.670Z,80.96
2018-05-16T00:48:54.205Z,80.98
2018-05-16T00:49:59.991Z,81.06
2018-05-16T00:51:22.550Z,81.03
2018-05-16T00:52:28.319Z,80.99
2018-05-16T00:53:33.909Z,80.91
2018-05-16T00:54:39.680Z,80.96
2018-05-16T00:55:45.206Z,80.96
2018-05-16T00:56:51.121Z,80.96
2018-05-16T00:57:57.121Z,80.93
2018-05-16T00:59:02.907Z,80.86
2018-05-16T01:00:08.891Z,80.78
2018-05-16T01:01:14.668Z,80.63
2018-05-16T01:02:21.210Z,80.48
2018-05-16T01:03:26.978Z,80.43
2018-05-16T01:04:33.342Z,80.45
2018-05-16T01:05:39.877Z,80.45
2018-05-16T01:06:45.652Z,80.41
2018-05-16T01:07:52.200Z,80.41
2018-05-16T01:08:58.084Z,80.49
2018-05-16T01:10:03.526Z,80.53
2018-05-16T01:11:09.305Z,80.45
2018-05-16T01:12:15.079Z,80.37
2018-05-16T01:13:21.419Z,80.47
2018-05-16T01:14:27.985Z,80.50
2018-05-16T01:15:34.555Z,80.53
2018-05-16T01:16:41.091Z,80.55
2018-05-16T01:17:48.367Z,80.54
2018-05-16T01:18:54.151Z,80.47
2018-05-16T01:19:59.922Z,80.46
2018-05-16T01:21:05.730Z,80.35
2018-05-16T01:22:11.496Z,80.37
2018-05-16T01:23:17.289Z,80.41
2018-05-16T01:24:23.831Z,80.27
2018-05-16T01:25:29.644Z,80.18
2018-05-16T01:26:35.452Z,80.20
2018-05-16T01:27:41.226Z,80.12
2018-05-16T01:28:47.028Z,80.15
2018-05-16T01:29:53.576Z,80.10
2018-05-16T01:30:59.391Z,80.02
2018-05-16T01:32:04.980Z,79.95
2018-05-16T01:33:10.752Z,80.07
2018-05-16T01:34:16.530Z,80.14
2018-05-16T01:35:23.816Z,80.24
2018-05-16T01:36:30.351Z,80.39
2018-05-16T01:37:36.153Z,80.44
2018-05-16T01:38:41.920Z,80.42
2018-05-16T01:39:47.693Z,80.38
2018-05-16T01:40:53.461Z,80.28
2018-05-16T01:42:00.005Z,80.15
2018-05-16T01:43:06.570Z,80.19
2018-05-16T01:44:12.336Z,80.17
2018-05-16T01:45:18.113Z,80.07
2018-05-16T01:46:23.890Z,80.00
2018-05-16T01:47:29.651Z,79.98
2018-05-16T01:48:35.451Z,80.06
2018-05-16T01:49:40.908Z,80.07
2018-05-16T01:50:47.444Z,79.99
2018-05-16T01:51:53.220Z,79.95
2018-05-16T01:52:59.748Z,79.84
2018-05-16T01:54:05.590Z,79.81
2018-05-16T01:55:11.361Z,79.92
2018-05-16T01:56:17.896Z,80.04
2018-05-16T01:57:23.664Z,80.15
2018-05-16T01:58:30.195Z,80.13
2018-05-16T01:59:36.779Z,80.16
2018-05-16T02:00:42.544Z,80.22
2018-05-16T02:01:49.082Z,80.22
2018-05-16T02:02:54.929Z,80.16
2018-05-16T02:04:00.699Z,80.03
2018-05-16T02:05:06.485Z,79.88
2018-05-16T02:06:12.251Z,79.75
2018-05-16T02:07:18.785Z,79.74
2018-05-16T02:08:24.543Z,79.78
2018-05-16T02:09:30.401Z,79.87
2018-05-16T02:10:36.955Z,80.04
2018-05-16T02:11:43.489Z,80.15
2018-05-16T02:12:49.351Z,80.21
2018-05-16T02:13:55.114Z,80.22
2018-05-16T02:15:01.694Z,80.22
2018-05-16T02:16:07.539Z,80.23
2018-05-16T02:17:13.341Z,80.13
2018-05-16T02:18:19.867Z,80.01
2018-05-16T02:19:25.661Z,79.97
2018-05-16T02:20:31.618Z,80.07
2018-05-16T02:21:38.183Z,80.12
2018-05-16T02:22:44.344Z,80.30
2018-05-16T02:23:50.186Z,80.47
2018-05-16T02:24:55.992Z,80.51
2018-05-16T02:26:01.771Z,80.50
2018-05-16T02:27:07.609Z,80.55
2018-05-16T02:28:13.368Z,80.54
2018-05-16T02:29:19.131Z,80.53
2018-05-16T02:30:24.921Z,80.47
2018-05-16T02:31:31.458Z,80.51
2018-05-16T02:32:37.243Z,80.56
2018-05-16T02:33:43.011Z,80.50
2018-05-16T02:34:48.789Z,80.49
2018-05-16T02:35:55.315Z,80.51
2018-05-16T02:37:01.111Z,80.54
2018-05-16T02:38:07.679Z,80.55
2018-05-16T02:39:13.453Z,80.51
2018-05-16T02:40:19.228Z,80.47
2018-05-16T02:41:24.995Z,80.48
2018-05-16T02:42:31.552Z,80.50
2018-05-16T02:43:38.116Z,80.52
2018-05-16T02:44:44.683Z,80.40
2018-05-16T02:45:51.206Z,80.28
2018-05-16T02:46:56.970Z,80.34
2018-05-16T02:48:03.501Z,80.31
2018-05-16T02:49:09.292Z,80.31
2018-05-16T02:50:15.056Z,80.27
2018-05-16T02:51:20.873Z,80.19
2018-05-16T02:52:26.639Z,80.22
2018-05-16T02:53:32.462Z,80.18
2018-05-16T02:54:38.281Z,80.21
2018-05-16T02:55:44.816Z,80.21
2018-05-16T02:56:50.575Z,80.22
2018-05-16T02:57:57.174Z,80.17
2018-05-16T02:59:02.936Z,80.17
2018-05-16T03:00:09.005Z,80.21
2018-05-16T03:01:14.763Z,80.14
2018-05-16T03:02:20.529Z,80.11
2018-05-16T03:03:27.049Z,80.17
2018-05-16T03:04:32.802Z,80.24
2018-05-16T03:05:38.599Z,80.26
2018-05-16T03:06:44.354Z,80.24
2018-05-16T03:07:50.135Z,80.25
2018-05-16T03:08:55.908Z,80.22
2018-05-16T03:10:02.430Z,80.22
2018-05-16T03:11:08.219Z,80.21
2018-05-16T03:12:14.006Z,80.24
2018-05-16T03:13:19.799Z,80.15
2018-05-16T03:14:25.595Z,80.12
2018-05-16T03:15:31.582Z,80.13
2018-05-16T03:16:37.439Z,80.11
2018-05-16T03:17:43.202Z,80.07
2018-05-16T03:18:48.964Z,79.96
2018-05-16T03:19:54.731Z,79.74
2018-05-16T03:21:01.275Z,79.54
2018-05-16T03:22:07.060Z,79.62
2018-05-16T03:23:12.830Z,79.67
2018-05-16T03:24:18.592Z,79.72
2018-05-16T03:25:24.363Z,79.68
2018-05-16T03:26:30.886Z,79.76
2018-05-16T03:27:36.681Z,79.78
2018-05-16T03:28:42.121Z,79.78
2018-05-16T03:29:47.884Z,79.79
2018-05-16T03:30:53.652Z,79.86
2018-05-16T03:32:00.179Z,79.91
2018-05-16T03:33:06.182Z,79.89
2018-05-16T03:34:12.702Z,79.80
2018-05-16T03:35:18.464Z,79.63
2018-05-16T03:36:24.231Z,79.56
2018-05-16T03:37:30.780Z,79.56
2018-05-16T03:38:36.242Z,79.52
2018-05-16T03:39:41.995Z,79.54
2018-05-16T03:40:47.785Z,79.50
2018-05-16T03:41:53.563Z,79.37
2018-05-16T03:43:00.091Z,79.46
2018-05-16T03:44:05.888Z,79.44
2018-05-16T03:45:11.652Z,79.48
2018-05-16T03:46:17.422Z,79.48
2018-05-16T03:47:23.186Z,79.49
2018-05-16T03:48:28.950Z,79.54
2018-05-16T03:49:34.851Z,79.44
2018-05-16T03:50:40.624Z,79.27
2018-05-16T03:51:46.399Z,79.00
2018-05-16T03:52:52.155Z,78.85
2018-05-16T03:53:57.924Z,78.75
2018-05-16T03:55:04.478Z,78.59
2018-05-16T03:56:11.007Z,78.65
2018-05-16T03:57:33.610Z,78.67
2018-05-16T03:58:56.148Z,78.54
2018-05-16T04:00:18.919Z,78.57
2018-05-16T04:01:41.694Z,78.52
2018-05-16T04:03:05.140Z,78.52
2018-05-16T04:04:18.050Z,78.49
2018-05-16T04:05:24.241Z,78.45
2018-05-16T04:06:29.997Z,78.43
2018-05-16T04:07:35.763Z,78.36
2018-05-16T04:08:41.546Z,78.12
2018-05-16T04:09:48.069Z,77.91
2018-05-16T04:10:53.633Z,77.92
2018-05-16T04:12:00.158Z,77.72
2018-05-16T04:13:05.612Z,77.63
2018-05-16T04:14:11.455Z,77.68
2018-05-16T04:15:17.368Z,77.80
2018-05-16T04:16:23.172Z,77.99
2018-05-16T04:17:29.700Z,78.17
2018-05-16T04:18:35.464Z,78.25
2018-05-16T04:19:42.002Z,78.42
2018-05-16T04:20:47.774Z,78.48
2018-05-16T04:21:54.319Z,78.52
2018-05-16T04:23:00.091Z,78.56
2018-05-16T04:24:05.851Z,78.58
2018-05-16T04:25:11.623Z,78.64
2018-05-16T04:26:17.390Z,78.74
2018-05-16T04:27:23.983Z,78.74
2018-05-16T04:28:29.751Z,78.71
2018-05-16T04:29:35.529Z,78.63
2018-05-16T04:30:42.051Z,78.69
2018-05-16T04:31:47.819Z,78.77
2018-05-16T04:32:53.609Z,78.64
2018-05-16T04:33:59.381Z,78.74
2018-05-16T04:35:05.182Z,78.76
2018-05-16T04:36:11.726Z,78.80
2018-05-16T04:37:18.407Z,78.87
2018-05-16T04:38:24.209Z,78.83
2018-05-16T04:39:30.756Z,78.79
2018-05-16T04:40:36.527Z,78.90
2018-05-16T04:41:44.062Z,79.08
2018-05-16T04:42:50.895Z,79.10
2018-05-16T04:43:56.711Z,79.17
2018-05-16T04:45:02.592Z,79.23
2018-05-16T04:46:08.527Z,79.24
2018-05-16T04:47:15.065Z,79.22
2018-05-16T04:48:20.835Z,79.15
2018-05-16T04:49:26.623Z,79.10
2018-05-16T04:50:32.398Z,78.96
2018-05-16T04:51:38.924Z,78.96
2018-05-16T04:52:44.764Z,78.97
2018-05-16T04:53:50.540Z,78.90
2018-05-16T04:54:57.106Z,78.86
2018-05-16T04:56:03.636Z,78.72
2018-05-16T04:57:09.406Z,78.66
2018-05-16T04:58:16.171Z,78.55
2018-05-16T04:59:22.725Z,78.48
2018-05-16T05:00:29.499Z,78.46
2018-05-16T05:01:36.028Z,78.37
2018-05-16T05:02:41.803Z,78.14
2018-05-16T05:03:48.343Z,77.94
2018-05-16T05:04:54.111Z,77.92
2018-05-16T05:06:00.658Z,78.04
2018-05-16T05:07:07.203Z,78.05
2018-05-16T05:08:12.967Z,78.16
2018-05-16T05:09:19.499Z,78.26
2018-05-16T05:10:25.280Z,78.21
2018-05-16T05:11:31.064Z,78.26
2018-05-16T05:12:36.832Z,78.31
2018-05-16T05:13:43.383Z,78.41
2018-05-16T05:14:50.671Z,78.22
2018-05-16T05:15:56.444Z,78.14
2018-05-16T05:17:02.273Z,77.93
2018-05-16T05:18:08.904Z,77.81
2018-05-16T05:19:15.587Z,77.67
2018-05-16T05:20:22.117Z,77.64
2018-05-16T05:21:27.881Z,77.68
2018-05-16T05:22:33.698Z,77.66
2018-05-16T05:23:39.491Z,77.66
2018-05-16T05:24:46.138Z,77.64
2018-05-16T05:25:52.854Z,77.68
2018-05-16T05:26:58.627Z,77.62
2018-05-16T05:28:04.488Z,77.66
2018-05-16T05:29:11.038Z,77.63
2018-05-16T05:30:16.866Z,77.55
2018-05-16T05:31:23.534Z,77.48
2018-05-16T05:32:30.817Z,77.52
2018-05-16T05:33:37.371Z,77.63
2018-05-16T05:34:43.143Z,77.69
2018-05-16T05:35:48.921Z,77.79
2018-05-16T05:36:54.739Z,77.97
2018-05-16T05:38:01.448Z,77.95
2018-05-16T05:39:06.569Z,77.92
2018-05-16T05:40:12.364Z,77.94
2018-05-16T05:41:18.918Z,77.89
2018-05-16T05:42:25.458Z,77.76
2018-05-16T05:43:31.216Z,77.63
2018-05-16T05:44:37.780Z,77.31
2018-05-16T05:45:44.063Z,77.04
2018-05-16T05:46:49.815Z,76.96
2018-05-16T05:47:55.589Z,76.82
2018-05-16T05:49:02.145Z,76.58
2018-05-16T05:50:07.931Z,76.51
2018-05-16T05:51:14.455Z,76.40
2018-05-16T05:52:20.299Z,76.49
2018-05-16T05:53:27.008Z,76.67
2018-05-16T05:54:32.763Z,76.74
2018-05-16T05:55:38.556Z,76.85
2018-05-16T05:56:44.319Z,76.94
2018-05-16T05:57:50.847Z,77.11
2018-05-16T05:58:56.639Z,77.20
2018-05-16T06:00:02.414Z,77.25
2018-05-16T06:01:08.413Z,77.21
2018-05-16T06:02:14.953Z,77.38
2018-05-16T06:03:20.722Z,77.41
2018-05-16T06:04:26.489Z,77.36
2018-05-16T06:05:32.266Z,77.31
2018-05-16T06:06:38.259Z,77.27
2018-05-16T06:07:44.030Z,77.12
2018-05-16T06:08:49.818Z,77.06
2018-05-16T06:09:56.355Z,76.96
2018-05-16T06:11:02.148Z,76.85
2018-05-16T06:12:08.903Z,76.36
2018-05-16T06:13:14.674Z,76.19
2018-05-16T06:14:20.458Z,76.07
2018-05-16T06:15:26.243Z,75.92
2018-05-16T06:16:32.022Z,75.73
2018-05-16T06:17:37.811Z,75.21
2018-05-16T06:18:43.589Z,74.90
2018-05-16T06:19:49.453Z,74.60
2018-05-16T06:20:55.437Z,74.44
2018-05-16T06:22:01.987Z,74.36
2018-05-16T06:23:08.546Z,74.03
2018-05-16T06:24:15.075Z,73.86
2018-05-16T06:25:20.839Z,73.43
2018-05-16T06:26:26.609Z,73.16
2018-05-16T06:27:32.371Z,73.09
2018-05-16T06:28:38.147Z,72.95
2018-05-16T06:29:43.908Z,72.96
2018-05-16T06:30:52.700Z,72.86
2018-05-16T06:31:58.460Z,72.81
2018-05-16T06:33:04.996Z,72.63
2018-05-16T06:34:10.800Z,72.46
2018-05-16T06:35:16.363Z,72.31
2018-05-16T06:36:22.127Z,72.08
2018-05-16T06:37:27.885Z,71.75
2018-05-16T06:38:34.419Z,71.76
2018-05-16T06:39:40.205Z,71.78
2018-05-16T06:40:46.734Z,71.82
2018-05-16T06:41:52.504Z,71.73
2018-05-16T06:42:59.331Z,71.94
2018-05-16T06:44:05.108Z,71.84
2018-05-16T06:45:11.380Z,71.98
2018-05-16T06:46:17.899Z,72.24
2018-05-16T06:47:23.668Z,72.45
2018-05-16T06:48:30.197Z,72.45
2018-05-16T06:49:35.972Z,72.33
2018-05-16T06:50:42.535Z,72.31
2018-05-16T06:51:49.104Z,72.10
2018-05-16T06:52:54.948Z,71.77
2018-05-16T06:54:01.097Z,71.56
2018-05-16T06:55:06.921Z,71.34
2018-05-16T06:56:12.729Z,71.31
2018-05-16T06:57:18.494Z,71.15
2018-05-16T06:58:24.276Z,70.91
2018-05-16T06:59:30.114Z,70.79
2018-05-16T07:00:35.866Z,70.04
2018-05-16T07:01:41.660Z,69.71
2018-05-16T07:02:47.429Z,69.73
2018-05-16T07:03:53.956Z,69.69
2018-05-16T07:04:59.708Z,69.49
2018-05-16T07:06:06.278Z,69.19
2018-05-16T07:07:12.851Z,68.64
2018-05-16T07:08:18.819Z,68.42
2018-05-16T07:09:24.581Z,68.41
2018-05-16T07:10:30.350Z,68.39
2018-05-16T07:11:36.906Z,68.47
2018-05-16T07:12:43.460Z,68.56
2018-05-16T07:13:49.251Z,68.69
2018-05-16T07:14:55.020Z,68.58
2018-05-16T07:16:00.785Z,68.65
2018-05-16T07:17:06.575Z,68.63
2018-05-16T07:18:12.358Z,68.61
2018-05-16T07:19:18.127Z,68.58
2018-05-16T07:20:23.573Z,68.52
2018-05-16T07:21:30.096Z,68.20
2018-05-16T07:22:35.866Z,67.87
2018-05-16T07:23:41.667Z,67.63
2018-05-16T07:24:47.430Z,67.71
2018-05-16T07:25:53.219Z,67.67
2018-05-16T07:26:58.995Z,67.66
2018-05-16T07:28:04.777Z,67.71
2018-05-16T07:29:10.573Z,67.67
2018-05-16T07:30:16.339Z,67.47
2018-05-16T07:31:22.331Z,66.98
2018-05-16T07:32:28.146Z,66.43
2018-05-16T07:33:34.069Z,65.85
2018-05-16T07:34:40.186Z,65.06
2018-05-16T07:35:46.142Z,64.12
2018-05-16T07:36:51.916Z,63.51
2018-05-16T07:37:57.680Z,63.15
2018-05-16T07:39:03.428Z,63.16
2018-05-16T07:40:09.983Z,63.14
2018-05-16T07:41:16.630Z,63.05
2018-05-16T07:42:24.002Z,62.58
2018-05-16T07:43:29.774Z,62.05
2018-05-16T07:44:36.315Z,61.55
2018-05-16T07:45:42.105Z,61.13
2018-05-16T07:46:47.875Z,60.07
2018-05-16T07:47:53.650Z,59.79
2018-05-16T07:49:00.191Z,59.72
2018-05-16T07:50:05.964Z,59.69
2018-05-16T07:51:12.554Z,59.63
2018-05-16T07:52:18.521Z,59.81
2018-05-16T07:53:24.326Z,60.00
2018-05-16T07:54:30.098Z,60.12
2018-05-16T07:55:35.863Z,60.32
2018-05-16T07:56:41.655Z,60.39
2018-05-16T07:57:47.427Z,60.57
2018-05-16T07:58:53.204Z,60.95
2018-05-16T07:59:58.980Z,61.59
2018-05-16T08:01:04.755Z,62.12
2018-05-16T08:02:10.555Z,62.67
2018-05-16T08:03:17.166Z,63.03
2018-05-16T08:04:23.868Z,63.41
2018-05-16T08:05:29.817Z,63.96
2018-05-16T08:06:36.354Z,64.32
2018-05-16T08:07:42.141Z,64.68
2018-05-16T08:08:47.916Z,65.02
2018-05-16T08:09:53.686Z,65.33
2018-05-16T08:11:00.963Z,65.35
2018-05-16T08:12:06.723Z,65.41
2018-05-16T08:13:13.282Z,65.34
2018-05-16T08:14:19.828Z,65.36
2018-05-16T08:15:25.585Z,65.45
2018-05-16T08:16:32.125Z,65.40
2018-05-16T08:17:38.659Z,65.25
2018-05-16T08:18:44.500Z,65.31
2018-05-16T08:19:50.269Z,65.39
2018-05-16T08:20:56.039Z,65.17
2018-05-16T08:22:01.810Z,65.09
2018-05-16T08:23:07.572Z,64.87
2018-05-16T08:24:13.365Z,64.99
2018-05-16T08:25:19.933Z,65.20
2018-05-16T08:26:25.705Z,65.39
2018-05-16T08:27:31.463Z,65.48
2018-05-16T08:28:37.238Z,65.60
2018-05-16T08:29:43.801Z,65.96
2018-05-16T08:30:50.329Z,66.33
2018-05-16T08:31:56.088Z,66.42
2018-05-16T08:33:02.832Z,66.04
2018-05-16T08:34:08.594Z,65.84
2018-05-16T08:35:15.166Z,65.63
2018-05-16T08:36:21.696Z,65.32
2018-05-16T08:37:27.490Z,65.27
2018-05-16T08:38:33.332Z,65.25
2018-05-16T08:39:39.099Z,65.22
2018-05-16T08:40:44.884Z,65.32
2018-05-16T08:41:50.644Z,65.33
2018-05-16T08:42:57.317Z,65.19
2018-05-16T08:44:03.210Z,65.19
2018-05-16T08:45:08.967Z,64.70
2018-05-16T08:46:14.760Z,64.74
2018-05-16T08:47:20.535Z,64.99
2018-05-16T08:48:26.311Z,65.24
2018-05-16T08:49:32.855Z,65.65
2018-05-16T08:50:38.611Z,65.73
2018-05-16T08:51:45.179Z,65.78
2018-05-16T08:52:51.719Z,65.76
2018-05-16T08:53:57.490Z,65.76
2018-05-16T08:55:03.307Z,65.76
2018-05-16T08:56:09.861Z,65.73
2018-05-16T08:57:15.651Z,65.43
2018-05-16T08:58:21.444Z,65.30
2018-05-16T08:59:28.007Z,65.32
2018-05-16T09:00:33.778Z,65.12
2018-05-16T09:01:40.310Z,64.88
2018-05-16T09:02:46.102Z,64.75
2018-05-16T09:03:51.896Z,64.45
2018-05-16T09:04:57.659Z,64.08
2018-05-16T09:06:04.197Z,63.80
2018-05-16T09:07:09.960Z,63.12
2018-05-16T09:08:16.530Z,62.72
2018-05-16T09:09:23.063Z,62.41
2018-05-16T09:10:28.836Z,62.04
2018-05-16T09:11:34.599Z,61.53
2018-05-16T09:12:40.368Z,61.00
2018-05-16T09:13:46.177Z,60.48
2018-05-16T09:14:51.949Z,60.03
2018-05-16T09:15:57.715Z,59.78
2018-05-16T09:17:04.248Z,59.87
2018-05-16T09:18:10.003Z,60.08
2018-05-16T09:19:15.799Z,60.15
2018-05-16T09:20:21.601Z,60.06
2018-05-16T09:21:28.863Z,60.19
2018-05-16T09:22:34.292Z,59.94
2018-05-16T09:23:40.054Z,59.72
2018-05-16T09:24:45.833Z,59.96
2018-05-16T09:25:51.591Z,60.08
2018-05-16T09:26:57.412Z,60.39
2018-05-16T09:28:03.184Z,60.71
2018-05-16T09:29:08.951Z,60.87
2018-05-16T09:30:14.755Z,61.06
2018-05-16T09:31:20.529Z,61.31
2018-05-16T09:32:26.296Z,61.77
2018-05-16T09:33:32.830Z,62.44
2018-05-16T09:34:38.596Z,62.72
2018-05-16T09:35:45.166Z,62.88
2018-05-16T09:36:51.693Z,63.52
2018-05-16T09:37:57.461Z,63.62
2018-05-16T09:39:03.555Z,63.85
2018-05-16T09:40:09.321Z,64.07
2018-05-16T09:41:15.114Z,64.28
2018-05-16T09:42:20.876Z,64.59
2018-05-16T09:43:26.642Z,64.60
2018-05-16T09:44:32.403Z,64.71
2018-05-16T09:45:38.196Z,64.47
2018-05-16T09:46:44.915Z,64.40
2018-05-16T09:47:50.687Z,63.43
2018-05-16T09:48:56.511Z,62.61
2018-05-16T09:50:03.073Z,60.97
2018-05-16T09:51:09.601Z,59.70
2018-05-16T09:52:15.388Z,58.98
2018-05-16T09:53:21.157Z,59.55
2018-05-16T09:54:26.919Z,59.44
2018-05-16T09:55:32.679Z,59.94
2018-05-16T09:56:38.471Z,59.34
2018-05-16T09:57:44.261Z,59.85
2018-05-16T09:58:50.042Z,60.30
2018-05-16T09:59:56.552Z,60.74
2018-05-16T10:01:02.315Z,61.26
2018-05-16T10:02:08.082Z,61.96
2018-05-16T10:03:13.870Z,62.74
2018-05-16T10:04:19.646Z,63.56
2018-05-16T10:05:26.193Z,64.23
2018-05-16T10:06:31.968Z,64.80
2018-05-16T10:07:37.738Z,65.09
2018-05-16T10:08:43.537Z,65.32
2018-05-16T10:09:50.122Z,65.38
2018-05-16T10:10:56.840Z,65.60
2018-05-16T10:12:02.608Z,65.78
2018-05-16T10:13:09.139Z,66.15
2018-05-16T10:14:14.991Z,66.43
2018-05-16T10:15:20.762Z,65.89
2018-05-16T10:16:26.541Z,66.28
2018-05-16T10:17:32.308Z,66.44
2018-05-16T10:18:38.067Z,66.33
2018-05-16T10:19:44.640Z,66.04
2018-05-16T10:20:51.180Z,65.82
2018-05-16T10:21:56.994Z,65.92
2018-05-16T10:23:02.796Z,65.69
2018-05-16T10:24:10.222Z,65.64
2018-05-16T10:25:16.024Z,65.62
2018-05-16T10:26:21.792Z,65.72
2018-05-16T10:27:27.608Z,65.66
2018-05-16T10:28:33.379Z,65.66
2018-05-16T10:29:39.134Z,65.66
2018-05-16T10:30:44.925Z,65.83
2018-05-16T10:31:51.457Z,65.57
2018-05-16T10:32:57.235Z,65.70
2018-05-16T10:34:03.008Z,65.96
2018-05-16T10:35:08.800Z,66.19
2018-05-16T10:36:15.360Z,66.52
2018-05-16T10:37:21.887Z,66.74
2018-05-16T10:38:27.321Z,66.74
2018-05-16T10:39:32.888Z,66.77
2018-05-16T10:40:39.430Z,66.46
2018-05-16T10:41:45.267Z,66.69
2018-05-16T10:42:51.032Z,66.47
2018-05-16T10:43:57.635Z,66.43
2018-05-16T10:45:03.392Z,66.60
2018-05-16T10:46:09.162Z,66.65
2018-05-16T10:47:16.463Z,66.53
2018-05-16T10:48:22.231Z,66.55
2018-05-16T10:49:28.018Z,66.38
2018-05-16T10:50:33.846Z,66.42
2018-05-16T10:51:41.460Z,66.55
2018-05-16T10:52:48.023Z,66.80
2018-05-16T10:53:54.572Z,67.17
2018-05-16T10:55:01.117Z,67.42
2018-05-16T10:56:06.903Z,67.67
2018-05-16T10:57:12.688Z,67.43
2018-05-16T10:58:18.472Z,67.29
2018-05-16T10:59:25.053Z,66.94
2018-05-16T11:00:31.779Z,66.85
2018-05-16T11:01:37.562Z,66.99
2018-05-16T11:02:43.332Z,67.23
2018-05-16T11:03:49.136Z,67.35
2018-05-16T11:04:54.913Z,67.34
2018-05-16T11:06:00.672Z,67.27
2018-05-16T11:07:06.469Z,66.99
2018-05-16T11:08:12.553Z,66.38
2018-05-16T11:09:18.536Z,66.17
2018-05-16T11:10:24.319Z,65.90
2018-05-16T11:11:30.158Z,65.89
2018-05-16T11:12:35.931Z,65.38
2018-05-16T11:13:41.945Z,65.26
2018-05-16T11:14:47.755Z,65.06
2018-05-16T11:15:54.349Z,64.83
2018-05-16T11:16:59.925Z,64.54
2018-05-16T11:18:05.678Z,63.99
2018-05-16T11:19:11.444Z,63.54
2018-05-16T11:20:18.008Z,63.29
2018-05-16T11:21:23.864Z,62.66
2018-05-16T11:22:30.129Z,62.03
2018-05-16T11:23:35.891Z,61.46
2018-05-16T11:24:41.670Z,61.07
2018-05-16T11:25:47.463Z,60.37
2018-05-16T11:26:53.239Z,59.92
2018-05-16T11:27:59.025Z,59.75
2018-05-16T11:29:05.544Z,59.05
2018-05-16T11:30:11.323Z,58.99
2018-05-16T11:31:17.876Z,59.09
2018-05-16T11:32:24.772Z,58.59
2018-05-16T11:33:30.533Z,58.22
2018-05-16T11:34:36.300Z,57.34
2018-05-16T11:35:42.246Z,56.99
2018-05-16T11:36:48.826Z,56.93
2018-05-16T11:37:54.593Z,56.84
2018-05-16T11:39:00.369Z,56.44
2018-05-16T11:40:06.143Z,56.33
2018-05-16T11:41:12.009Z,55.56
2018-05-16T11:42:18.675Z,54.49
2018-05-16T11:43:24.555Z,53.76
2018-05-16T11:44:30.317Z,53.41
2018-05-16T11:45:36.083Z,53.11
2018-05-16T11:46:41.855Z,52.71
2018-05-16T11:47:47.630Z,52.28
2018-05-16T11:48:53.479Z,52.46
2018-05-16T11:50:00.143Z,52.47
2018-05-16T11:51:05.911Z,51.47
2018-05-16T11:52:11.674Z,50.16
2018-05-16T11:53:18.236Z,49.57
2018-05-16T11:54:24.786Z,49.64
2018-05-16T11:55:31.550Z,49.54
2018-05-16T11:56:38.358Z,49.71
2018-05-16T11:57:44.933Z,50.24
2018-05-16T11:58:50.732Z,50.27
2018-05-16T11:59:56.492Z,50.47
2018-05-16T12:01:02.273Z,50.93
2018-05-16T12:02:08.036Z,50.96
2018-05-16T12:03:13.812Z,51.25
2018-05-16T12:04:19.594Z,51.50
2018-05-16T12:05:25.361Z,51.86
2018-05-16T12:06:31.138Z,52.18
2018-05-16T12:07:36.910Z,52.33
2018-05-16T12:08:42.672Z,52.55
2018-05-16T12:09:48.466Z,52.35
2018-05-16T12:10:54.235Z,52.62
2018-05-16T12:12:00.046Z,52.83
2018-05-16T12:13:05.854Z,53.15
2018-05-16T12:14:11.647Z,53.48
2018-05-16T12:15:17.446Z,53.43
2018-05-16T12:16:23.207Z,53.53
2018-05-16T12:17:28.764Z,53.41
2018-05-16T12:18:34.523Z,53.70
2018-05-16T12:19:40.369Z,53.86
2018-05-16T12:20:46.154Z,54.13
2018-05-16T12:21:52.692Z,54.48
2018-05-16T12:22:58.475Z,54.16
2018-05-16T12:24:05.010Z,54.24
2018-05-16T12:25:10.791Z,54.40
2018-05-16T12:26:16.583Z,54.23
2018-05-16T12:27:23.904Z,54.46
2018-05-16T12:28:30.500Z,54.76
2018-05-16T12:29:36.273Z,54.84
2018-05-16T12:30:42.154Z,54.93
2018-05-16T12:31:47.956Z,55.04
2018-05-16T12:32:53.733Z,55.25
2018-05-16T12:33:59.495Z,55.23
2018-05-16T12:35:05.049Z,55.27
2018-05-16T12:36:10.814Z,55.33
2018-05-16T12:37:16.610Z,55.20
2018-05-16T12:38:22.403Z,55.01
2018-05-16T12:39:28.374Z,55.08
2018-05-16T12:40:35.050Z,54.98
2018-05-16T12:41:40.828Z,54.64
2018-05-16T12:44:33.490Z,54.49
2018-05-16T12:45:39.251Z,54.00
2018-05-16T12:46:45.783Z,53.94
2018-05-16T12:47:51.562Z,54.01
2018-05-16T12:48:58.116Z,53.93
2018-05-16T12:50:04.314Z,53.78
2018-05-16T12:51:10.088Z,53.41
2018-05-16T12:52:16.096Z,52.95
2018-05-16T12:53:21.861Z,52.68
2018-05-16T12:54:27.671Z,52.39
2018-05-16T12:55:33.440Z,51.94
2018-05-16T12:56:39.205Z,51.42
2018-05-16T12:57:44.969Z,51.18
2018-05-16T12:58:51.500Z,50.92
2018-05-16T12:59:58.932Z,50.70
2018-05-16T13:01:05.289Z,50.55
2018-05-16T13:02:11.056Z,50.01
2018-05-16T13:03:16.827Z,49.83
2018-05-16T13:04:24.123Z,49.56
2018-05-16T13:05:29.908Z,49.19
2018-05-16T13:06:35.738Z,48.85
2018-05-16T13:07:41.515Z,48.62
2018-05-16T13:08:47.279Z,48.47
2018-05-16T13:09:53.945Z,48.67
2018-05-16T13:10:59.723Z,49.21
2018-05-16T13:12:05.483Z,49.66
2018-05-16T13:13:11.255Z,50.02
2018-05-16T13:14:17.024Z,50.31
2018-05-16T13:15:23.550Z,50.41
2018-05-16T13:16:29.360Z,50.49
2018-05-16T13:17:35.128Z,50.37
2018-05-16T13:18:40.890Z,50.48
2018-05-16T13:19:46.667Z,50.64
2018-05-16T13:20:53.261Z,50.85
2018-05-16T13:21:59.064Z,50.64
2018-05-16T13:23:05.605Z,50.54
2018-05-16T13:24:11.385Z,50.35
2018-05-16T13:25:17.162Z,50.11
2018-05-16T13:26:22.929Z,49.83
2018-05-16T13:27:30.282Z,49.60
2018-05-16T13:28:36.094Z,49.73
2018-05-16T13:29:42.014Z,49.88
2018-05-16T13:30:49.377Z,50.25
2018-05-16T13:31:55.924Z,50.51
2018-05-16T13:33:02.593Z,50.70
2018-05-16T13:34:08.382Z,50.89
2018-05-16T13:35:14.179Z,50.85
2018-05-16T13:36:20.042Z,50.58
2018-05-16T13:37:25.941Z,50.29
2018-05-16T13:38:31.781Z,49.58
2018-05-16T13:39:37.550Z,48.78
2018-05-16T13:40:43.317Z,48.23
2018-05-16T13:41:49.084Z,48.15
2018-05-16T13:42:54.846Z,47.21
2018-05-16T13:44:00.640Z,45.77
2018-05-16T13:45:07.222Z,46.05
2018-05-16T13:46:12.995Z,46.37
2018-05-16T13:47:18.765Z,46.29
2018-05-16T13:48:24.533Z,46.17
2018-05-16T13:49:31.079Z,45.86
2018-05-16T13:50:37.834Z,45.63
2018-05-16T13:51:43.593Z,45.65
2018-05-16T13:52:50.124Z,45.67
2018-05-16T13:53:55.884Z,45.65
2018-05-16T13:55:02.480Z,46.07
2018-05-16T13:56:08.234Z,46.37
2018-05-16T13:57:14.019Z,46.55
2018-05-16T13:58:19.800Z,46.65
2018-05-16T13:59:25.558Z,46.69
2018-05-16T14:00:31.366Z,46.26
2018-05-16T14:01:37.911Z,46.63
2018-05-16T14:02:43.696Z,46.99
2018-05-16T14:03:49.683Z,47.31
2018-05-16T14:04:55.494Z,47.57
2018-05-16T14:06:01.286Z,47.54
2018-05-16T14:07:07.060Z,47.48
2018-05-16T14:08:12.811Z,46.94
2018-05-16T14:09:18.637Z,46.66
2018-05-16T14:10:24.446Z,46.78
2018-05-16T14:11:31.775Z,46.91
2018-05-16T14:12:37.612Z,47.21
2018-05-16T14:13:43.457Z,47.32